West Newton, PA

8:45 AM EST on January 26, 2015 (GMT -0500)
APRSWXNET North Huntingdon PA US | Change Station
CLOSE
Current Station
Personal Weather Station
Location: North Huntingdon, PA
Elevation: 1017 ft
Nearby Weather Stations
Active Advisory: Winter Weather Advisory Active Notice: Public Information Statement

Elev 1017 ft 40.32 °N, 79.76 °W | Updated 26 minutes ago

Snow
Snow
31 °F
Feels Like 31 °F
N
0
Wind Variable Wind from NNE
Gusts 0.0 mph

Today
High -- | Low -- °F
--% Chance of Precip.
Yesterday
High -- | Low -- °F
Precip. -- in
7:33 AM 5:30 PM
Waxing Crescent, 43% visible
Pressure 29.67 in
Visibility 0.8 miles
Clouds Mostly Cloudy 500 ft
Overcast 2200 ft
Windchill 31 °F
Dew Point 28 °F
Humidity 87%
Rainfall 0.12 in
Snow Depth Not available.
UV 0 out of 12
Pollen .10 out of 12
Air Quality Not available.
Flu Activity Not available.
SPECI KAGC 261333Z AUTO VRB04KT 3/4SM R28/5500VP6000FT -SN BR BKN005 OVC022 M02/M04 A2967 RMK AO2 P0000 T10171039 TSNO

More Conditions Fewer Conditions

Pressure 29.67 in
Visibility 0.8 miles
Clouds Mostly Cloudy 500 ft
Overcast 2200 ft
Windchill 31 °F
Dew Point 28 °F
Humidity 87%
Rainfall 0.12 in
Snow Depth Not available.
UV 0 out of 12
Pollen .10 out of 12
Air Quality Not available.
Flu Activity Not available.
SPECI KAGC 261333Z AUTO VRB04KT 3/4SM R28/5500VP6000FT -SN BR BKN005 OVC022 M02/M04 A2967 RMK AO2 P0000 T10171039 TSNO

More Conditions Fewer Conditions

10-Day Weather Forecast

Almanac

Astronomy

Jan. 26, 2015 Rise Set
Actual Time
Civil Twilight
Nautical Twilight
Astronomical Twilight
Moon
Length of Visible Light
Length of Day
Tomorrow will be .
, % of the Moon is Illuminated

Today's Extremes

State Highs State Lows

Community

WunderPhotos

Upload Photos

1,790,200 photos uploaded!

WunderBlogs® & News

Nearby

Air Quality

  Air Quality AQ Index Pollutant
Not available.

Snow Depth

Station Depth Elevation

Earthquake Activity

City Distance Mag. Time & Date
Minimum magnitude displayed is 2.5.

Coastal Water Temperatures

Place Temperature

Nearby Weather Stations